Tel Aviv, Israel

5:48 PM IST on February 10, 2016 (GMT +0200)
Ben-Shemen | | Change Station
CLOSE
Current Station
Personal Weather Station
Location: Moshav 56 Maivar, SHFELA
Elevation: 197 ft
Nearby Weather Stations

Elev 197 ft 31.95 °N, 34.92 °E | Updated 2 minutes ago

Scattered Clouds
Scattered Clouds
56.1 °F
Feels Like 56.1 °F
N
0.0
Wind Variable Wind from West
Gusts 2.2 mph

Today
High -- | Low -- °F
--% Chance of Precip.
Yesterday
High -- | Low -- °F
Precip. -- in
Pressure 30.12 in
Visibility 6.2 miles
Clouds Few 2700 ft
Scattered Clouds 5000 ft
Dew Point 55 °F
Humidity 96%
Rainfall 0.00 in
Snow Depth Not available.
6:27 AM 5:21 PM
Waxing Crescent, 6% visible
METAR LLBG 101520Z 25005KT 9999 FEW027 SCT050 15/09 Q1020 NOSIG
Pressure 30.12 in
Visibility 6.2 miles
Clouds Few 2700 ft
Scattered Clouds 5000 ft
Dew Point 55 °F
Humidity 96%
Rainfall 0.00 in
Snow Depth Not available.
6:27 AM 5:21 PM
Waxing Crescent, 6% visible
METAR LLBG 101520Z 25005KT 9999 FEW027 SCT050 15/09 Q1020 NOSIG

10-Day Weather Forecast

No radar image for this location.
×

Almanac

Astronomy

Feb. 10, 2016 Rise Set
Actual Time
Civil Twilight
Nautical Twilight
Astronomical Twilight
Moon
Length of Visible Light
Length of Day
Tomorrow will be .
, % of the Moon is Illuminated

Today's Extremes

Country Highs Country Lows

Community

WunderPhotos

Upload Photos

1,891,863 photos uploaded!

WunderBlog® & News

Nearby

Air Quality

  Air Quality AQ Index Pollutant
Not available.

Snow Depth

Station Depth Elevation

Earthquake Activity

City Distance Mag. Time & Date
Minimum magnitude displayed is 2.5.

Coastal Water Temperatures

Place Temperature

Stations

Nearby Weather Stations

Station Location Temp. Windchill Dew Point Humidity Wind Precip. Elev Updated Type